Time;durP1;ratioP1;P1;durP2;ratioP2;P2;SDS_P1;SDS_P2;PMS_P1;PMS_P2;Temp;Humidity;BMP_temperature;BMP_pressure;BME280_temperature;BME280_humidity;BME280_pressure;Samples;Min_cycle;Max_cycle;Signal;HPM_P1;HPM_P2
2022/04/30 00:02:13;;;;;;;6.82;4.05;;;16.70;99.90;;;;;;5081082;28;20632;-80
2022/04/30 00:04:41;;;;;;;4.88;3.92;;;16.60;99.90;;;;;;5076952;28;20193;-78
2022/04/30 00:07:09;;;;;;;4.72;3.92;;;16.60;99.90;;;;;;5092519;28;20201;-80
2022/04/30 00:09:37;;;;;;;4.03;3.65;;;16.50;99.90;;;;;;5071388;28;20202;-80
2022/04/30 00:12:06;;;;;;;4.05;3.60;;;16.50;99.90;;;;;;5071845;28;20214;-81
2022/04/30 00:14:33;;;;;;;4.15;3.67;;;16.40;99.90;;;;;;5080758;28;20286;-76
2022/04/30 00:17:00;;;;;;;3.90;2.67;;;16.40;99.90;;;;;;5073176;28;20194;-76
2022/04/30 00:19:28;;;;;;;5.03;3.63;;;16.40;99.90;;;;;;5081546;28;20198;-75
2022/04/30 00:21:55;;;;;;;4.22;3.83;;;16.30;99.90;;;;;;5072468;28;20257;-75
2022/04/30 00:24:23;;;;;;;7.25;4.82;;;16.30;99.90;;;;;;5074320;28;20205;-79
2022/04/30 00:26:50;;;;;;;9.18;3.33;;;16.30;99.90;;;;;;5070629;28;20202;-80
2022/04/30 00:29:18;;;;;;;5.70;3.70;;;16.20;99.90;;;;;;5087237;28;20264;-76
2022/04/30 00:31:46;;;;;;;8.93;4.20;;;16.10;99.90;;;;;;5075337;28;20210;-79
2022/04/30 00:34:13;;;;;;;4.38;3.65;;;16.10;99.90;;;;;;5073998;28;20210;-77
2022/04/30 00:36:40;;;;;;;6.88;4.00;;;16.10;99.90;;;;;;5085749;28;20305;-78
2022/04/30 00:39:07;;;;;;;4.57;3.50;;;16.10;99.90;;;;;;5079559;28;20198;-77
2022/04/30 00:41:34;;;;;;;7.18;4.22;;;16.20;99.90;;;;;;5071905;28;20287;-77
2022/04/30 00:44:02;;;;;;;5.10;3.08;;;16.10;99.90;;;;;;5067180;28;20262;-76
2022/04/30 00:46:30;;;;;;;4.47;3.63;;;16.00;99.90;;;;;;5077168;28;20650;-76
2022/04/30 00:48:58;;;;;;;9.82;4.78;;;16.10;99.90;;;;;;5066385;28;20203;-76
2022/04/30 00:51:28;;;;;;;4.90;4.40;;;16.00;99.90;;;;;;5078055;28;20203;-81
2022/04/30 00:53:57;;;;;;;6.00;3.97;;;16.10;99.90;;;;;;5079827;28;20280;-81
2022/04/30 00:56:33;;;;;;;3.80;3.45;;;16.10;99.90;;;;;;5072011;28;20286;-80
2022/04/30 00:59:03;;;;;;;4.25;3.50;;;16.10;99.90;;;;;;5072367;28;20205;-81
2022/04/30 01:01:33;;;;;;;5.05;3.95;;;16.00;99.90;;;;;;5071746;28;20218;-81
2022/04/30 01:04:01;;;;;;;6.80;4.22;;;16.00;99.90;;;;;;5072771;28;20251;-81
2022/04/30 01:06:48;;;;;;;5.40;3.40;;;15.90;99.90;;;;;;5079022;28;20253;-80
2022/04/30 01:09:15;;;;;;;3.92;3.53;;;16.10;99.90;;;;;;5082182;28;20751;-80
2022/04/30 01:11:43;;;;;;;8.73;3.40;;;16.00;99.90;;;;;;5078343;28;20559;-81
2022/04/30 01:14:11;;;;;;;4.10;3.20;;;16.10;99.90;;;;;;5088305;28;20197;-80
2022/04/30 01:16:39;;;;;;;4.65;3.75;;;16.10;99.90;;;;;;5071289;28;20202;-81
2022/04/30 01:19:08;;;;;;;6.55;3.78;;;16.10;99.90;;;;;;5072571;28;20249;-81
2022/04/30 01:21:36;;;;;;;4.63;3.50;;;16.10;99.90;;;;;;5090238;28;21122;-80
2022/04/30 01:24:06;;;;;;;5.78;3.85;;;16.10;99.90;;;;;;5083380;28;20747;-77
2022/04/30 01:26:33;;;;;;;5.22;4.07;;;16.10;99.90;;;;;;5074291;28;20209;-77
2022/04/30 01:29:00;;;;;;;4.28;3.88;;;16.10;99.90;;;;;;5071470;28;20202;-78
2022/04/30 01:39:41;;;;;;;4.15;3.60;;;16.00;99.90;;;;;;5065339;28;20739;-76
2022/04/30 01:42:12;;;;;;;6.63;3.97;;;16.00;99.90;;;;;;5079093;28;20229;-76
2022/04/30 01:44:40;;;;;;;6.55;3.60;;;16.00;99.90;;;;;;5087123;28;20197;-76
2022/04/30 01:47:08;;;;;;;6.20;3.92;;;16.00;99.90;;;;;;5077161;28;20204;-77
2022/04/30 01:49:35;;;;;;;4.38;3.47;;;16.00;99.90;;;;;;5077982;28;20251;-75
2022/04/30 01:52:07;;;;;;;6.03;4.28;;;15.90;99.90;;;;;;5068038;28;20194;-76
2022/04/30 01:54:34;;;;;;;4.05;3.45;;;15.90;99.90;;;;;;5068729;28;20209;-76
2022/04/30 01:57:04;;;;;;;4.00;3.60;;;15.90;99.90;;;;;;5080668;28;20223;-76
2022/04/30 01:59:31;;;;;;;5.20;4.55;;;15.90;99.90;;;;;;5072129;28;20699;-78
2022/04/30 02:02:00;;;;;;;6.65;4.65;;;15.90;99.90;;;;;;5080028;28;20229;-77
2022/04/30 02:04:27;;;;;;;4.25;3.63;;;15.90;99.90;;;;;;5074596;28;20210;-79
2022/04/30 02:06:56;;;;;;;3.83;3.40;;;15.90;99.90;;;;;;5069243;28;20284;-75
2022/04/30 02:09:23;;;;;;;4.28;3.88;;;15.80;99.90;;;;;;5078292;28;20198;-75
2022/04/30 02:11:50;;;;;;;4.60;4.07;;;15.90;99.90;;;;;;5079900;28;20206;-75
2022/04/30 02:14:20;;;;;;;4.28;3.65;;;15.90;99.90;;;;;;5084823;28;20214;-75
2022/04/30 02:16:48;;;;;;;5.53;4.68;;;15.90;99.90;;;;;;5070191;28;20669;-75
2022/04/30 02:19:16;;;;;;;4.22;3.78;;;15.80;99.90;;;;;;5086073;28;20202;-75
2022/04/30 02:21:44;;;;;;;4.65;3.88;;;15.80;99.90;;;;;;5077548;28;20650;-76
2022/04/30 02:24:11;;;;;;;4.55;3.90;;;15.80;99.90;;;;;;5071159;28;20259;-75
2022/04/30 02:26:38;;;;;;;6.22;3.83;;;15.70;99.90;;;;;;5076460;28;20296;-74
2022/04/30 02:29:07;;;;;;;4.00;3.60;;;15.70;99.90;;;;;;5089774;28;20198;-75
2022/04/30 02:31:35;;;;;;;5.38;3.42;;;15.70;99.90;;;;;;5081144;28;20210;-76
2022/04/30 02:34:02;;;;;;;7.13;4.07;;;15.60;99.90;;;;;;5080948;28;20205;-76
2022/04/30 02:36:30;;;;;;;4.82;4.18;;;15.60;99.90;;;;;;5089614;28;20202;-76
2022/04/30 02:38:59;;;;;;;5.40;3.95;;;15.60;99.90;;;;;;5074321;28;20199;-76
2022/04/30 02:41:28;;;;;;;5.85;4.13;;;15.60;99.90;;;;;;5080666;28;20217;-77
2022/04/30 02:43:55;;;;;;;5.05;4.00;;;15.70;99.90;;;;;;5083545;28;20205;-79
2022/04/30 02:46:23;;;;;;;4.65;3.60;;;15.60;99.90;;;;;;5069743;28;20233;-76
2022/04/30 02:48:51;;;;;;;6.05;4.80;;;15.60;99.90;;;;;;5083985;28;20568;-75
2022/04/30 02:51:18;;;;;;;6.55;4.07;;;15.60;99.90;;;;;;5088835;28;20209;-75
2022/04/30 02:53:45;;;;;;;6.53;4.53;;;15.60;99.90;;;;;;5089512;28;20197;-79
2022/04/30 02:56:13;;;;;;;4.30;3.90;;;15.60;99.90;;;;;;5074108;28;20676;-75
2022/04/30 03:01:24;;;;;;;7.60;3.92;;;15.60;99.90;;;;;;5072130;28;20811;-75
2022/04/30 03:03:52;;;;;;;6.53;4.35;;;15.60;99.90;;;;;;5081051;28;20197;-74
2022/04/30 03:06:19;;;;;;;7.45;4.25;;;15.60;99.90;;;;;;5081432;28;20209;-74
2022/04/30 03:08:47;;;;;;;4.45;3.95;;;15.60;99.90;;;;;;5078580;28;20224;-74
2022/04/30 03:11:16;;;;;;;4.50;3.90;;;15.50;99.90;;;;;;5069697;28;20214;-76
2022/04/30 03:13:43;;;;;;;6.22;4.10;;;15.50;99.90;;;;;;5077712;28;20205;-75
2022/04/30 03:21:44;;;;;;;5.32;4.82;;;15.60;99.90;;;;;;5075261;28;20232;-75
2022/04/30 03:24:13;;;;;;;5.85;4.85;;;15.60;99.90;;;;;;5088429;28;20198;-76
2022/04/30 03:26:40;;;;;;;5.22;4.25;;;15.40;99.90;;;;;;5073536;28;20296;-77
2022/04/30 03:29:07;;;;;;;6.80;4.28;;;15.50;99.90;;;;;;5073668;28;20202;-76
2022/04/30 03:31:34;;;;;;;5.30;4.53;;;15.50;99.90;;;;;;5073232;28;20206;-77
2022/04/30 03:34:03;;;;;;;5.40;4.28;;;15.50;99.90;;;;;;5073280;28;20255;-74
2022/04/30 03:36:30;;;;;;;6.47;4.35;;;15.40;99.90;;;;;;5081087;28;20221;-80
2022/04/30 03:38:57;;;;;;;7.43;4.68;;;15.40;99.90;;;;;;5090256;28;20201;-83
2022/04/30 03:41:24;;;;;;;5.28;4.50;;;15.30;99.90;;;;;;5079333;28;20201;-80
2022/04/30 03:43:51;;;;;;;6.35;4.82;;;15.30;99.90;;;;;;5076713;28;20572;-81
2022/04/30 03:46:19;;;;;;;6.90;4.68;;;15.30;99.90;;;;;;5092595;28;20210;-81
2022/04/30 03:48:51;;;;;;;5.28;4.78;;;15.20;99.90;;;;;;5092680;28;20606;-81
2022/04/30 03:51:20;;;;;;;7.32;4.60;;;15.20;99.90;;;;;;5065832;28;20206;-81
2022/04/30 03:53:47;;;;;;;11.20;4.22;;;15.20;99.90;;;;;;5089863;28;20202;-81
2022/04/30 03:56:16;;;;;;;7.90;4.72;;;15.20;99.90;;;;;;5073840;28;20202;-83
2022/04/30 03:58:43;;;;;;;5.85;5.28;;;15.10;99.90;;;;;;5088972;28;20673;-77
2022/04/30 04:01:11;;;;;;;8.27;4.93;;;15.10;99.90;;;;;;5092079;28;20661;-75
2022/04/30 04:03:39;;;;;;;7.60;4.80;;;15.10;99.90;;;;;;5079379;28;20251;-79
2022/04/30 04:06:06;;;;;;;6.93;4.13;;;15.30;99.90;;;;;;5082679;28;20209;-79
2022/04/30 04:08:35;;;;;;;7.65;5.00;;;15.40;99.90;;;;;;5079419;28;20213;-80
2022/04/30 04:11:02;;;;;;;6.40;5.80;;;15.40;99.90;;;;;;5089457;28;20193;-80
2022/04/30 04:18:58;;;;;;;7.30;4.38;;;15.10;99.90;;;;;;5077421;28;20205;-73
2022/04/30 04:21:26;;;;;;;5.43;4.50;;;15.00;99.90;;;;;;5088547;28;20210;-72
2022/04/30 04:26:38;;;;;;;7.03;4.38;;;15.10;99.90;;;;;;5089888;28;20267;-78
2022/04/30 04:29:05;;;;;;;6.60;4.97;;;15.00;99.90;;;;;;5072873;28;20260;-74
2022/04/30 04:31:32;;;;;;;6.10;4.95;;;15.10;99.90;;;;;;5088334;28;20251;-77
2022/04/30 04:33:59;;;;;;;6.85;5.00;;;15.10;99.90;;;;;;5080488;28;20251;-78
2022/04/30 04:36:26;;;;;;;6.82;5.00;;;15.10;99.90;;;;;;5071835;28;20681;-77
2022/04/30 04:38:54;;;;;;;5.45;4.88;;;15.20;99.90;;;;;;5079951;28;20551;-79
2022/04/30 04:41:22;;;;;;;5.93;5.38;;;15.30;99.90;;;;;;5072111;28;20206;-74
2022/04/30 04:43:48;;;;;;;7.43;6.03;;;15.20;99.90;;;;;;5081134;28;20609;-78
2022/04/30 04:46:15;;;;;;;6.70;5.25;;;15.10;99.90;;;;;;5071759;28;20747;-76
2022/04/30 04:48:43;;;;;;;7.35;5.32;;;15.10;99.90;;;;;;5076323;28;20745;-79
2022/04/30 04:51:10;;;;;;;9.73;5.20;;;15.10;99.90;;;;;;5077455;28;20268;-83
2022/04/30 04:53:37;;;;;;;5.60;5.10;;;15.00;99.90;;;;;;5078353;28;20210;-78
2022/04/30 04:56:06;;;;;;;7.85;5.53;;;15.10;99.90;;;;;;5064067;28;20259;-82
2022/04/30 04:58:33;;;;;;;8.25;5.93;;;15.00;99.90;;;;;;5087287;28;20217;-79
2022/04/30 05:01:00;;;;;;;9.00;5.43;;;14.90;99.90;;;;;;5080719;28;20262;-80
2022/04/30 05:03:27;;;;;;;7.10;6.47;;;14.90;99.90;;;;;;5065316;28;20234;-79
2022/04/30 05:05:54;;;;;;;6.53;5.57;;;14.80;99.90;;;;;;5073369;28;20251;-78
2022/04/30 05:08:21;;;;;;;7.25;6.28;;;14.80;99.90;;;;;;5064905;28;20210;-78
2022/04/30 05:10:48;;;;;;;9.75;6.70;;;14.80;99.90;;;;;;5064320;28;20285;-78
2022/04/30 05:13:16;;;;;;;6.28;5.68;;;14.80;99.90;;;;;;5076285;28;20260;-78
2022/04/30 05:15:44;;;;;;;7.40;6.32;;;14.80;99.90;;;;;;5084336;28;20263;-79
2022/04/30 05:18:11;;;;;;;7.95;6.55;;;14.80;99.90;;;;;;5088461;28;20229;-78
2022/04/30 05:20:38;;;;;;;7.32;6.55;;;14.80;99.90;;;;;;5076746;28;20201;-80
2022/04/30 05:23:05;;;;;;;7.22;6.28;;;14.80;99.90;;;;;;5083031;28;20233;-79
2022/04/30 05:25:33;;;;;;;10.50;6.57;;;14.70;99.90;;;;;;5090710;28;20202;-80
2022/04/30 05:28:00;;;;;;;8.35;7.20;;;14.80;99.90;;;;;;5082527;28;20660;-79
2022/04/30 05:30:29;;;;;;;9.68;7.32;;;14.80;99.90;;;;;;5075692;28;20207;-77
2022/04/30 05:32:56;;;;;;;5.72;5.20;;;14.90;99.90;;;;;;5070942;28;20224;-82
2022/04/30 05:35:23;;;;;;;8.80;5.90;;;14.90;99.90;;;;;;5070869;28;20207;-78
2022/04/30 05:37:50;;;;;;;6.85;6.15;;;14.80;99.90;;;;;;5078067;28;20701;-77
2022/04/30 05:40:18;;;;;;;6.30;4.95;;;14.80;99.90;;;;;;5068819;28;20198;-78
2022/04/30 05:42:45;;;;;;;7.20;6.05;;;14.80;99.90;;;;;;5074986;28;20226;-77
2022/04/30 05:45:12;;;;;;;9.10;6.10;;;14.90;99.90;;;;;;5064074;28;20206;-75
2022/04/30 05:47:40;;;;;;;6.00;5.47;;;14.90;99.90;;;;;;5068272;28;20213;-75
2022/04/30 05:50:09;;;;;;;6.20;5.32;;;14.80;99.90;;;;;;5068370;28;20207;-75
2022/04/30 05:52:36;;;;;;;6.93;4.65;;;14.80;99.90;;;;;;5078295;28;21103;-74
2022/04/30 05:55:04;;;;;;;15.00;6.45;;;14.90;99.90;;;;;;5081518;28;20454;-74
2022/04/30 05:57:32;;;;;;;8.90;6.20;;;15.00;99.90;;;;;;5077363;28;20747;-75
2022/04/30 05:59:59;;;;;;;6.68;5.05;;;15.00;99.90;;;;;;5070565;28;20203;-74
2022/04/30 06:02:26;;;;;;;6.28;4.72;;;15.10;99.90;;;;;;5069934;28;20236;-76
2022/04/30 06:04:55;;;;;;;5.35;4.88;;;15.20;99.90;;;;;;5080858;28;20202;-75
2022/04/30 06:07:22;;;;;;;5.82;4.57;;;15.20;99.90;;;;;;5066613;28;20209;-76
2022/04/30 06:09:49;;;;;;;5.65;5.03;;;15.10;99.90;;;;;;5072956;28;20210;-76
2022/04/30 06:12:16;;;;;;;6.65;6.05;;;15.10;99.90;;;;;;5080174;28;20275;-76
2022/04/30 06:14:44;;;;;;;7.72;5.43;;;15.00;99.90;;;;;;5078497;28;20209;-76
2022/04/30 06:17:11;;;;;;;5.93;5.28;;;15.00;99.90;;;;;;5080221;28;20737;-76
2022/04/30 06:19:38;;;;;;;6.28;5.68;;;15.00;99.90;;;;;;5074634;28;20210;-76
2022/04/30 06:22:07;;;;;;;6.18;5.57;;;15.00;99.90;;;;;;5074587;28;20206;-75
2022/04/30 06:24:34;;;;;;;7.80;5.75;;;15.00;99.90;;;;;;5076274;28;20251;-76
2022/04/30 06:27:02;;;;;;;5.78;5.10;;;15.10;99.90;;;;;;5080688;28;20206;-75
2022/04/30 06:29:29;;;;;;;6.55;5.22;;;15.10;99.90;;;;;;5080772;28;20321;-79
2022/04/30 06:31:56;;;;;;;5.45;4.85;;;15.00;99.90;;;;;;5070848;28;20673;-77
2022/04/30 06:34:23;;;;;;;7.88;5.50;;;15.00;99.90;;;;;;5079037;28;20612;-77
2022/04/30 06:36:51;;;;;;;5.22;4.72;;;15.10;99.90;;;;;;5070575;28;20210;-77
2022/04/30 06:39:20;;;;;;;6.05;5.47;;;15.10;99.90;;;;;;5061510;28;20263;-77
2022/04/30 06:41:47;;;;;;;8.32;5.72;;;15.10;99.90;;;;;;5065301;28;20210;-77
2022/04/30 06:44:14;;;;;;;5.93;4.90;;;15.10;99.90;;;;;;5071986;28;20782;-77
2022/04/30 06:46:41;;;;;;;6.18;5.57;;;15.10;99.90;;;;;;5072207;28;20666;-76
2022/04/30 06:49:08;;;;;;;7.63;6.88;;;15.20;99.90;;;;;;5065756;28;20207;-75
2022/04/30 06:51:35;;;;;;;5.78;5.28;;;15.30;99.90;;;;;;5080972;28;20202;-79
2022/04/30 06:57:11;;;;;;;10.23;5.97;;;15.30;99.90;;;;;;5071190;28;20270;-76
2022/04/30 06:59:40;;;;;;;7.82;7.03;;;15.40;99.90;;;;;;5069215;28;20209;-79
2022/04/30 07:02:12;;;;;;;10.13;6.75;;;15.60;99.90;;;;;;5074590;28;20202;-80
2022/04/30 07:04:41;;;;;;;7.10;6.43;;;15.60;99.90;;;;;;5063893;28;20672;-82
2022/04/30 07:07:08;;;;;;;8.05;6.40;;;15.70;99.90;;;;;;5076551;28;20205;-86
2022/04/30 07:09:35;;;;;;;6.97;5.90;;;15.90;99.90;;;;;;5074749;28;20234;-78
2022/04/30 07:12:06;;;;;;;8.85;7.50;;;16.10;99.90;;;;;;5072906;28;20252;-79
2022/04/30 07:14:35;;;;;;;7.97;6.82;;;15.80;99.90;;;;;;5068284;28;20681;-79
2022/04/30 07:17:03;;;;;;;8.07;6.95;;;15.60;99.90;;;;;;5068376;28;20670;-80
2022/04/30 07:19:30;;;;;;;9.20;7.90;;;15.50;99.90;;;;;;5086561;28;20623;-77
2022/04/30 07:21:57;;;;;;;11.88;7.82;;;15.60;99.90;;;;;;5071902;28;20201;-78
2022/04/30 07:24:25;;;;;;;10.20;7.72;;;15.50;99.90;;;;;;5071360;28;20233;-81
2022/04/30 07:26:52;;;;;;;8.82;8.02;;;15.40;99.90;;;;;;5074572;28;20256;-83
2022/04/30 07:29:20;;;;;;;9.48;8.57;;;15.40;99.90;;;;;;5081562;28;20289;-77
2022/04/30 07:31:47;;;;;;;10.07;8.60;;;15.40;99.90;;;;;;5064453;28;20206;-76
2022/04/30 07:34:14;;;;;;;9.60;8.65;;;15.30;99.90;;;;;;5073812;28;20271;-78
2022/04/30 07:36:42;;;;;;;10.40;8.60;;;15.40;99.90;;;;;;5063320;28;20209;-76
2022/04/30 07:39:09;;;;;;;9.95;8.00;;;15.60;99.90;;;;;;5060904;28;20254;-76
2022/04/30 07:41:36;;;;;;;11.93;8.70;;;15.90;99.90;;;;;;5057890;28;20666;-77
2022/04/30 07:44:03;;;;;;;10.40;9.27;;;16.10;99.90;;;;;;5062387;28;20239;-77
2022/04/30 07:46:32;;;;;;;12.70;9.38;;;16.10;99.90;;;;;;5074124;28;20214;-77
2022/04/30 07:49:00;;;;;;;9.13;8.23;;;16.00;99.90;;;;;;5076939;28;20279;-80
2022/04/30 07:51:38;;;;;;;13.00;9.75;;;15.90;99.90;;;;;;5068704;28;20289;-82
2022/04/30 07:54:07;;;;;;;10.93;9.45;;;15.70;99.90;;;;;;5082122;28;20209;-87
2022/04/30 07:56:35;;;;;;;10.63;8.50;;;15.60;99.90;;;;;;5069123;28;20683;-91
2022/04/30 07:59:02;;;;;;;11.98;9.60;;;15.80;99.90;;;;;;5076095;28;20255;-77
2022/04/30 08:01:29;;;;;;;9.73;8.75;;;15.70;99.90;;;;;;5070132;28;20609;-75
2022/04/30 08:03:57;;;;;;;9.93;8.70;;;15.70;99.90;;;;;;5070514;28;20287;-75
2022/04/30 08:06:24;;;;;;;13.32;9.75;;;15.70;99.90;;;;;;5068143;28;20219;-87
2022/04/30 08:08:51;;;;;;;10.15;8.10;;;15.70;99.90;;;;;;5066806;28;20288;-82
2022/04/30 08:11:18;;;;;;;10.90;8.98;;;15.80;99.90;;;;;;5066273;28;20215;-81
2022/04/30 08:13:45;;;;;;;11.10;9.95;;;15.70;99.90;;;;;;5067735;28;20558;-84
2022/04/30 08:16:12;;;;;;;11.10;8.82;;;15.80;99.90;;;;;;5067734;28;20210;-83
2022/04/30 08:18:39;;;;;;;9.60;8.60;;;15.70;99.90;;;;;;5065789;28;20210;-82
2022/04/30 08:21:08;;;;;;;12.38;9.93;;;15.80;99.90;;;;;;5074020;28;20260;-79
2022/04/30 08:23:36;;;;;;;13.75;9.90;;;15.80;99.90;;;;;;5082369;28;20222;-79
2022/04/30 08:26:04;;;;;;;11.43;10.32;;;15.90;99.90;;;;;;5063851;28;20290;-81
2022/04/30 08:28:31;;;;;;;9.75;8.70;;;15.90;99.90;;;;;;5073682;28;20205;-80
2022/04/30 08:30:59;;;;;;;19.08;9.05;;;16.00;99.90;;;;;;5068136;28;20198;-77
2022/04/30 08:33:27;;;;;;;15.07;11.30;;;15.90;99.90;;;;;;5072255;28;20206;-80
2022/04/30 08:35:56;;;;;;;11.80;10.57;;;15.90;99.90;;;;;;5075617;28;20201;-81
2022/04/30 08:38:24;;;;;;;10.85;9.68;;;15.90;99.90;;;;;;5063293;28;20573;-76
2022/04/30 08:40:51;;;;;;;14.90;10.27;;;16.00;99.90;;;;;;5058950;28;20230;-78
2022/04/30 08:43:20;;;;;;;13.32;9.38;;;16.10;99.90;;;;;;5077454;28;20245;-87
2022/04/30 08:45:48;;;;;;;11.32;9.82;;;16.00;99.90;;;;;;5071406;28;20270;-79
2022/04/30 08:48:17;;;;;;;15.77;10.88;;;15.70;99.90;;;;;;5077694;28;20271;-76
2022/04/30 08:50:46;;;;;;;13.18;11.88;;;15.90;99.90;;;;;;5065365;28;20700;-78
2022/04/30 08:53:13;;;;;;;12.52;10.38;;;16.30;99.90;;;;;;5076402;28;20218;-83
2022/04/30 08:55:42;;;;;;;14.93;10.75;;;16.60;99.90;;;;;;5069471;28;20237;-77
2022/04/30 08:58:09;;;;;;;13.45;11.70;;;16.80;99.90;;;;;;5065734;28;20214;-78
2022/04/30 09:00:41;;;;;;;11.82;10.63;;;16.80;99.90;;;;;;5064740;28;20210;-78
2022/04/30 09:03:09;;;;;;;11.68;10.52;;;16.80;99.90;;;;;;5075208;28;20229;-78
2022/04/30 09:05:38;;;;;;;12.77;11.45;;;16.90;99.90;;;;;;5073124;28;20213;-78
2022/04/30 09:08:06;;;;;;;12.70;11.13;;;17.10;99.90;;;;;;5076388;28;20202;-80
2022/04/30 09:10:37;;;;;;;12.40;11.18;;;17.00;99.90;;;;;;5071711;28;20622;-82
2022/04/30 09:13:07;;;;;;;12.50;11.27;;;17.00;99.90;;;;;;5075857;28;20202;-80
2022/04/30 09:15:35;;;;;;;11.95;10.70;;;17.10;99.90;;;;;;5060483;28;20260;-81
2022/04/30 09:18:03;;;;;;;13.52;12.00;;;17.30;99.90;;;;;;5070734;28;20202;-79
2022/04/30 09:20:31;;;;;;;11.18;10.00;;;17.80;99.90;;;;;;5072220;28;20260;-80
2022/04/30 09:22:58;;;;;;;13.40;10.45;;;18.20;99.90;;;;;;5067669;28;20202;-81
2022/04/30 09:25:25;;;;;;;11.82;10.63;;;17.90;99.90;;;;;;5074816;28;20206;-77
2022/04/30 09:27:53;;;;;;;16.70;11.10;;;17.70;99.90;;;;;;5068602;28;20234;-81
2022/04/30 09:30:24;;;;;;;17.02;11.75;;;17.50;99.90;;;;;;5065912;28;20260;-76
2022/04/30 09:33:02;;;;;;;13.23;11.32;;;17.50;99.90;;;;;;5070359;28;20202;-80
2022/04/30 09:38:15;;;;;;;10.95;9.80;;;18.50;99.90;;;;;;5070904;28;20292;-78
2022/04/30 09:40:52;;;;;;;16.42;11.57;;;18.30;99.90;;;;;;5072575;28;20206;-82
2022/04/30 09:43:20;;;;;;;13.27;10.93;;;18.50;99.90;;;;;;5073845;28;20275;-85
2022/04/30 09:45:48;;;;;;;12.88;11.63;;;20.00;99.90;;;;;;5072420;28;20294;-81
2022/04/30 09:53:57;;;;;;;13.48;9.77;;;25.80;99.90;;;;;;5067041;28;20291;-81
2022/04/30 09:56:34;;;;;;;10.60;9.52;;;25.40;99.90;;;;;;5066233;28;20251;-79
2022/04/30 09:59:04;;;;;;;13.50;9.98;;;23.50;99.90;;;;;;5071099;28;20299;-79
2022/04/30 10:01:35;;;;;;;10.80;9.77;;;23.40;99.90;;;;;;5068766;28;20752;-78
2022/04/30 10:04:08;;;;;;;10.75;9.65;;;24.80;99.90;;;;;;5067608;28;20312;-80
2022/04/30 10:06:37;;;;;;;10.18;9.27;;;24.30;99.90;;;;;;5069294;28;20198;-78
2022/04/30 10:09:10;;;;;;;11.65;9.82;;;22.10;99.90;;;;;;5069604;28;20217;-79
2022/04/30 10:11:44;;;;;;;11.20;9.27;;;20.50;99.90;;;;;;5078183;28;20259;-78
2022/04/30 10:14:23;;;;;;;10.15;9.13;;;20.00;99.90;;;;;;5071409;28;20617;-78
2022/04/30 10:17:10;;;;;;;9.65;8.75;;;21.60;99.90;;;;;;5066804;28;20707;-80
2022/04/30 10:19:38;;;;;;;10.32;9.43;;;25.90;99.90;;;;;;5071724;28;20210;-78
2022/04/30 10:22:14;;;;;;;9.32;8.52;;;28.80;99.90;;;;;;5075772;28;20249;-81
2022/04/30 10:24:48;;;;;;;10.23;9.30;;;27.30;99.90;;;;;;5081645;28;20227;-78
2022/04/30 10:27:16;;;;;;;12.63;9.05;;;24.00;99.90;;;;;;5070873;28;20293;-83
2022/04/30 10:29:54;;;;;;;10.00;9.10;;;25.00;99.90;;;;;;5075402;28;20213;-80
2022/04/30 10:32:30;;;;;;;9.63;8.68;;;24.30;99.90;;;;;;5065408;28;20216;-80
2022/04/30 10:34:58;;;;;;;9.85;8.88;;;22.20;99.90;;;;;;5064365;28;20206;-79
2022/04/30 10:37:33;;;;;;;8.25;7.55;;;21.80;99.90;;;;;;5070152;28;20673;-80
2022/04/30 10:40:04;;;;;;;10.70;8.52;;;20.70;99.90;;;;;;5061426;28;20209;-77
2022/04/30 10:42:32;;;;;;;10.23;8.55;;;20.30;99.90;;;;;;5056711;28;20252;-76
2022/04/30 10:44:59;;;;;;;9.18;8.27;;;20.20;99.90;;;;;;5072365;28;20229;-76
2022/04/30 10:47:26;;;;;;;8.57;7.78;;;20.20;99.90;;;;;;5071872;28;20209;-79
2022/04/30 10:49:55;;;;;;;11.00;8.02;;;20.60;99.90;;;;;;5062977;28;20214;-75
2022/04/30 10:52:24;;;;;;;10.38;9.27;;;19.90;99.90;;;;;;5058871;28;20210;-74
2022/04/30 10:54:55;;;;;;;11.27;10.02;;;19.50;99.90;;;;;;5072168;28;20646;-76
2022/04/30 10:57:23;;;;;;;9.73;8.02;;;19.70;99.90;;;;;;5070295;28;20574;-79
2022/04/30 11:00:02;;;;;;;9.55;8.23;;;20.20;99.90;;;;;;5069506;28;20217;-75
2022/04/30 11:02:33;;;;;;;8.50;7.78;;;20.30;99.90;;;;;;5070369;28;20201;-75
2022/04/30 11:05:02;;;;;;;8.02;7.32;;;19.80;99.90;;;;;;5063495;28;20234;-74
2022/04/30 11:07:31;;;;;;;9.82;7.93;;;19.80;99.90;;;;;;5067627;28;20279;-76
2022/04/30 11:09:58;;;;;;;8.52;7.70;;;20.30;99.90;;;;;;5064431;28;20284;-78
2022/04/30 11:12:31;;;;;;;7.93;7.13;;;20.60;99.90;;;;;;5074457;28;20626;-80
2022/04/30 11:14:58;;;;;;;7.68;6.63;;;20.40;99.90;;;;;;5084113;28;20194;-78
2022/04/30 11:17:26;;;;;;;8.50;7.57;;;20.30;99.90;;;;;;5072036;28;20199;-78
2022/04/30 11:19:55;;;;;;;8.25;7.22;;;20.30;99.90;;;;;;5073231;28;20247;-77
2022/04/30 11:22:24;;;;;;;8.35;7.55;;;20.20;99.90;;;;;;5069208;28;20682;-80
2022/04/30 11:24:51;;;;;;;12.20;7.85;;;20.30;99.90;;;;;;5080448;28;20222;-78
2022/04/30 11:27:18;;;;;;;12.25;7.00;;;20.20;99.90;;;;;;5087833;28;20202;-79
2022/04/30 11:29:53;;;;;;;7.78;7.07;;;20.40;99.90;;;;;;5076357;28;20198;-77
2022/04/30 11:32:21;;;;;;;8.23;7.53;;;20.50;99.90;;;;;;5066897;28;20209;-79
2022/04/30 11:34:48;;;;;;;7.32;6.43;;;20.60;99.90;;;;;;5087694;28;20206;-77
2022/04/30 11:37:15;;;;;;;7.60;6.90;;;20.70;99.90;;;;;;5064424;28;20271;-77
2022/04/30 11:39:44;;;;;;;7.85;6.95;;;20.70;99.90;;;;;;5069207;28;20259;-77
2022/04/30 11:42:14;;;;;;;7.07;6.38;;;20.90;99.90;;;;;;5073993;28;20198;-76
2022/04/30 11:44:41;;;;;;;7.75;6.28;;;21.00;99.90;;;;;;5077140;28;20243;-76
2022/04/30 11:47:09;;;;;;;8.05;5.93;;;21.20;99.90;;;;;;5073909;28;20235;-76
2022/04/30 11:49:36;;;;;;;8.77;6.53;;;21.60;99.90;;;;;;5074331;28;20259;-76
2022/04/30 11:52:04;;;;;;;6.97;6.32;;;21.20;99.90;;;;;;5081323;28;20197;-76
2022/04/30 11:54:36;;;;;;;6.00;5.20;;;21.00;99.90;;;;;;5091748;28;20205;-77
2022/04/30 11:57:06;;;;;;;6.53;6.03;;;21.30;99.90;;;;;;5075703;28;20198;-75
2022/04/30 11:59:36;;;;;;;10.95;9.60;;;21.40;99.90;;;;;;5074668;28;20248;-77
2022/04/30 12:02:04;;;;;;;15.02;13.50;;;21.30;99.90;;;;;;5064230;28;20676;-78
2022/04/30 12:04:35;;;;;;;6.40;5.80;;;21.50;99.90;;;;;;5068784;28;20780;-77
2022/04/30 12:07:05;;;;;;;6.70;5.75;;;21.70;99.90;;;;;;5085025;28;20262;-78
2022/04/30 12:09:35;;;;;;;6.70;6.10;;;21.80;99.90;;;;;;5074316;28;20198;-75
2022/04/30 12:12:02;;;;;;;5.90;5.40;;;21.90;99.90;;;;;;5070230;28;20209;-76
2022/04/30 12:14:30;;;;;;;7.88;6.13;;;22.10;99.90;;;;;;5081020;28;20296;-75
2022/04/30 12:16:59;;;;;;;5.47;5.07;;;21.70;99.90;;;;;;5068508;28;20202;-78
2022/04/30 12:25:06;;;;;;;5.43;4.93;;;21.40;99.90;;;;;;5079965;28;20731;-79
2022/04/30 12:27:33;;;;;;;5.28;4.50;;;21.40;99.90;;;;;;5082754;28;20961;-76
2022/04/30 12:30:04;;;;;;;5.57;4.97;;;21.30;99.90;;;;;;5065221;28;20212;-76
2022/04/30 12:32:32;;;;;;;7.53;5.47;;;21.50;99.90;;;;;;5078826;28;20210;-77
2022/04/30 12:35:01;;;;;;;6.25;4.57;;;21.80;99.90;;;;;;5079018;28;20209;-77
2022/04/30 12:37:35;;;;;;;5.70;5.20;;;22.10;99.90;;;;;;5077496;28;20236;-77
2022/04/30 12:40:02;;;;;;;5.00;4.60;;;22.10;99.90;;;;;;5065289;28;20323;-76
2022/04/30 12:42:29;;;;;;;4.88;4.47;;;22.30;99.90;;;;;;5072038;28;20276;-75
2022/04/30 12:44:56;;;;;;;4.43;3.92;;;22.20;99.90;;;;;;5072239;28;20307;-76
2022/04/30 12:47:25;;;;;;;4.25;3.85;;;22.20;99.90;;;;;;5080032;28;20264;-76
2022/04/30 12:49:54;;;;;;;4.90;4.40;;;22.30;99.90;;;;;;5074395;28;20202;-75
2022/04/30 12:52:21;;;;;;;5.20;4.72;;;22.30;99.90;;;;;;5091427;28;20259;-78
2022/04/30 12:54:50;;;;;;;5.30;4.85;;;22.40;99.90;;;;;;5074793;28;20252;-77
2022/04/30 12:57:17;;;;;;;6.55;5.30;;;22.20;99.90;;;;;;5077955;28;20202;-75
2022/04/30 12:59:47;;;;;;;6.53;4.78;;;21.80;99.90;;;;;;5072246;28;20272;-76
2022/04/30 13:02:27;;;;;;;4.82;3.50;;;21.70;99.90;;;;;;5091096;28;20202;-78
2022/04/30 13:04:55;;;;;;;6.97;3.30;;;21.90;99.90;;;;;;5075014;28;20229;-77
2022/04/30 13:07:22;;;;;;;8.13;4.15;;;22.40;99.90;;;;;;5077825;28;20257;-81
2022/04/30 13:15:18;;;;;;;6.45;4.18;;;22.40;99.90;;;;;;5089807;28;20208;-77
2022/04/30 13:17:45;;;;;;;5.65;5.15;;;21.80;99.90;;;;;;5091199;28;20201;-76
2022/04/30 13:20:14;;;;;;;6.82;4.53;;;21.70;99.90;;;;;;5090672;28;20709;-76
2022/04/30 13:22:44;;;;;;;5.97;3.75;;;22.10;99.90;;;;;;5083566;28;20204;-77
2022/04/30 13:25:11;;;;;;;5.25;4.75;;;22.10;99.90;;;;;;5074242;28;20303;-81
2022/04/30 13:27:38;;;;;;;5.75;3.83;;;21.90;99.90;;;;;;5079119;28;20677;-77
2022/04/30 13:30:07;;;;;;;8.38;4.78;;;21.90;99.90;;;;;;5064823;28;20203;-78
2022/04/30 13:32:34;;;;;;;4.85;3.80;;;22.10;99.90;;;;;;5086956;28;20210;-76
2022/04/30 13:35:01;;;;;;;5.43;3.67;;;22.10;99.90;;;;;;5077844;28;20258;-77
2022/04/30 13:37:30;;;;;;;4.57;3.92;;;22.30;99.90;;;;;;5080838;28;20240;-79